createdAt,value
2022-08-03T00:02:23.903Z,101474.06
2022-08-03T00:04:52.659Z,101483.84
2022-08-03T00:07:21.330Z,101479.41
2022-08-03T00:09:51.436Z,101477.31
2022-08-03T00:12:20.306Z,101474.69
2022-08-03T00:14:48.860Z,101467.09
2022-08-03T00:17:17.559Z,101467.88
2022-08-03T00:19:46.925Z,101469.63
2022-08-03T00:22:15.741Z,101462.41
2022-08-03T00:24:44.383Z,101458.94
2022-08-03T00:27:15.132Z,101468.53
2022-08-03T00:29:59.440Z,101456.00
2022-08-03T00:32:29.261Z,101464.91
2022-08-03T00:34:59.016Z,101457.28
2022-08-03T00:37:40.771Z,101458.88
2022-08-03T00:40:12.804Z,101462.13
2022-08-03T00:42:54.048Z,101460.28
2022-08-03T00:45:24.390Z,101464.41
2022-08-03T00:47:53.491Z,101465.72
2022-08-03T00:50:23.943Z,101465.72
2022-08-03T00:52:53.974Z,101459.31
2022-08-03T00:55:22.916Z,101470.00
2022-08-03T00:57:53.496Z,101465.84
2022-08-03T01:00:24.334Z,101458.63
2022-08-03T01:02:53.841Z,101466.00
2022-08-03T01:05:23.401Z,101455.47
2022-08-03T01:08:07.200Z,101468.06
2022-08-03T01:10:43.295Z,101466.56
2022-08-03T01:14:01.686Z,101462.00
2022-08-03T01:16:16.577Z,101469.28
2022-08-03T01:18:51.905Z,101459.56
2022-08-03T01:21:28.424Z,101459.00
2022-08-03T01:24:23.911Z,101465.00
2022-08-03T01:27:05.359Z,101461.03
2022-08-03T01:29:59.243Z,101461.31
2022-08-03T01:32:59.232Z,101459.22
2022-08-03T01:35:36.700Z,101460.91
2022-08-03T01:38:13.315Z,101461.91
2022-08-03T01:40:44.488Z,101465.44
2022-08-03T01:43:58.925Z,101460.78
2022-08-03T01:46:08.930Z,101466.59
2022-08-03T01:48:40.871Z,101468.78
2022-08-03T01:51:11.786Z,101460.78
2022-08-03T01:53:43.505Z,101455.03
2022-08-03T01:56:13.443Z,101454.97
2022-08-03T01:58:43.253Z,101455.97
2022-08-03T02:01:14.724Z,101454.97
2022-08-03T02:03:59.779Z,101456.25
2022-08-03T02:07:00.730Z,101454.41
2022-08-03T02:09:24.775Z,101452.56
2022-08-03T02:11:55.118Z,101453.84
2022-08-03T02:14:25.019Z,101450.72
2022-08-03T02:16:56.619Z,101458.94
2022-08-03T02:19:29.495Z,101454.28
2022-08-03T02:22:02.051Z,101454.28
2022-08-03T02:24:32.857Z,101449.03
2022-08-03T02:27:05.332Z,101452.28
2022-08-03T02:29:40.109Z,101453.00
2022-08-03T02:32:16.311Z,101445.53
2022-08-03T02:34:48.496Z,101447.31
2022-08-03T02:37:20.077Z,101447.13
2022-08-03T02:39:53.463Z,101441.06
2022-08-03T02:42:25.690Z,101441.06
2022-08-03T02:44:57.885Z,101433.88
2022-08-03T02:47:54.541Z,101433.13
2022-08-03T02:50:20.071Z,101436.63
2022-08-03T02:52:51.857Z,101437.53
2022-08-03T02:55:22.934Z,101430.97
2022-08-03T02:57:52.906Z,101423.66
2022-08-03T03:00:28.342Z,101427.75
2022-08-03T03:03:01.685Z,101432.53
2022-08-03T03:05:55.339Z,101422.88
2022-08-03T03:08:26.127Z,101429.03
2022-08-03T03:11:00.806Z,101436.63
2022-08-03T03:13:30.650Z,101431.16
2022-08-03T03:16:03.557Z,101435.66
2022-08-03T03:18:35.511Z,101430.00
2022-08-03T03:21:05.885Z,101437.25
2022-08-03T03:23:37.676Z,101435.66
2022-08-03T03:26:07.268Z,101440.56
2022-08-03T03:28:38.106Z,101439.78
2022-08-03T03:31:08.224Z,101437.63
2022-08-03T03:33:39.176Z,101438.63
2022-08-03T03:36:08.590Z,101439.31
2022-08-03T03:38:37.960Z,101440.19
2022-08-03T03:41:06.910Z,101444.09
2022-08-03T03:43:36.040Z,101445.78
2022-08-03T03:46:05.209Z,101439.81
2022-08-03T03:48:35.306Z,101435.69
2022-08-03T03:51:05.337Z,101432.66
2022-08-03T03:53:33.867Z,101436.03
2022-08-03T03:56:03.169Z,101434.69
2022-08-03T03:58:33.410Z,101437.75
2022-08-03T04:01:02.459Z,101436.34
2022-08-03T04:03:31.497Z,101439.78
2022-08-03T04:06:17.973Z,101431.38
2022-08-03T04:09:13.934Z,101427.16
2022-08-03T04:11:48.841Z,101427.47
2022-08-03T04:14:20.238Z,101429.34
2022-08-03T04:16:52.895Z,101425.44
2022-08-03T04:19:28.193Z,101419.75
2022-08-03T04:22:01.348Z,101420.56
2022-08-03T04:24:36.042Z,101426.69
2022-08-03T04:27:08.697Z,101419.25
2022-08-03T04:29:48.348Z,101429.59
2022-08-03T04:32:18.995Z,101432.41
2022-08-03T04:34:48.552Z,101436.91
2022-08-03T04:37:36.539Z,101432.88
2022-08-03T04:40:10.100Z,101431.66
2022-08-03T04:42:40.928Z,101433.22
2022-08-03T04:45:13.671Z,101434.00
2022-08-03T04:47:43.193Z,101434.06
2022-08-03T04:50:15.933Z,101427.91
2022-08-03T04:53:07.354Z,101433.78
2022-08-03T04:55:37.688Z,101435.38
2022-08-03T04:58:06.435Z,101435.69
2022-08-03T05:00:35.812Z,101435.91
2022-08-03T05:03:04.352Z,101427.50
2022-08-03T05:05:50.493Z,101429.28
2022-08-03T05:08:20.628Z,101437.28
2022-08-03T05:10:59.009Z,101435.28
2022-08-03T05:13:28.257Z,101443.28
2022-08-03T05:15:56.954Z,101443.28
2022-08-03T05:18:25.609Z,101440.72
2022-08-03T05:20:54.365Z,101446.25
2022-08-03T05:23:23.080Z,101444.75
2022-08-03T05:25:51.584Z,101447.16
2022-08-03T05:28:21.569Z,101446.53
2022-08-03T05:30:50.388Z,101447.00
2022-08-03T05:33:18.901Z,101443.47
2022-08-03T05:35:56.003Z,101445.59
2022-08-03T05:38:34.058Z,101442.59
2022-08-03T05:41:23.389Z,101452.72
2022-08-03T05:43:55.977Z,101447.09
2022-08-03T05:46:25.190Z,101455.75
2022-08-03T05:48:53.835Z,101451.94
2022-08-03T05:51:22.445Z,101449.16
2022-08-03T05:53:50.933Z,101440.91
2022-08-03T05:56:24.092Z,101443.00
2022-08-03T05:58:53.193Z,101447.41
2022-08-03T06:01:23.226Z,101445.63
2022-08-03T06:03:53.151Z,101452.63
2022-08-03T06:06:21.698Z,101446.81
2022-08-03T06:08:50.630Z,101448.91
2022-08-03T06:11:19.618Z,101447.44
2022-08-03T06:13:48.137Z,101443.84
2022-08-03T06:16:16.989Z,101446.78
2022-08-03T06:18:47.144Z,101451.72
2022-08-03T06:21:16.415Z,101450.22
2022-08-03T06:23:54.875Z,101437.59
2022-08-03T06:26:25.949Z,101444.63
2022-08-03T06:28:55.454Z,101439.94
2022-08-03T06:31:33.210Z,101450.84
2022-08-03T06:34:34.096Z,101459.13
2022-08-03T06:37:01.404Z,101444.00
2022-08-03T06:39:31.036Z,101448.41
2022-08-03T06:41:59.739Z,101459.00
2022-08-03T06:44:28.535Z,101451.28
2022-08-03T06:46:57.163Z,101456.00
2022-08-03T06:49:28.045Z,101456.03
2022-08-03T06:52:03.899Z,101452.69
2022-08-03T06:54:38.115Z,101461.53
2022-08-03T06:57:08.361Z,101463.66
2022-08-03T07:00:07.338Z,101454.06
2022-08-03T07:02:28.273Z,101461.84
2022-08-03T07:04:58.963Z,101464.19
2022-08-03T07:07:27.955Z,101468.06
2022-08-03T07:09:58.290Z,101461.84
2022-08-03T07:12:29.277Z,101457.97
2022-08-03T07:15:02.133Z,101459.25
2022-08-03T07:17:33.325Z,101458.97
2022-08-03T07:20:06.071Z,101458.44
2022-08-03T07:22:34.875Z,101458.44
2022-08-03T07:25:03.602Z,101458.16
2022-08-03T07:27:32.290Z,101457.56
2022-08-03T07:30:01.101Z,101467.19
2022-08-03T07:32:31.706Z,101465.66
2022-08-03T07:35:01.367Z,101468.22
2022-08-03T07:37:31.812Z,101474.94
2022-08-03T07:40:00.782Z,101472.84
2022-08-03T07:42:30.308Z,101480.09
2022-08-03T07:44:59.714Z,101478.25
2022-08-03T07:47:35.596Z,101473.19
2022-08-03T07:50:08.595Z,101467.16
2022-08-03T07:52:52.282Z,101470.88
2022-08-03T07:55:22.613Z,101480.44
2022-08-03T07:58:04.108Z,101473.94
2022-08-03T08:00:32.800Z,101472.63
2022-08-03T08:03:01.385Z,101469.94
2022-08-03T08:05:30.205Z,101477.22
2022-08-03T08:08:00.237Z,101470.16
2022-08-03T08:10:29.667Z,101482.06
2022-08-03T08:12:58.628Z,101476.75
2022-08-03T08:15:27.302Z,101481.81
2022-08-03T08:17:58.793Z,101482.16
2022-08-03T08:20:30.583Z,101479.13
2022-08-03T08:23:17.296Z,101475.66
2022-08-03T08:25:58.180Z,101483.69
2022-08-03T08:28:30.176Z,101470.72
2022-08-03T08:31:00.835Z,101464.22
2022-08-03T08:33:42.469Z,101466.25
2022-08-03T08:36:18.227Z,101467.47
2022-08-03T08:38:48.841Z,101472.34
2022-08-03T08:41:18.511Z,101469.84
2022-08-03T08:43:47.133Z,101466.06
2022-08-03T08:46:23.371Z,101470.47
2022-08-03T08:48:54.700Z,101463.38
2022-08-03T08:51:59.106Z,101452.41
2022-08-03T08:54:21.981Z,101458.66
2022-08-03T08:56:52.531Z,101453.00
2022-08-03T08:59:22.481Z,101454.00
2022-08-03T09:01:51.113Z,101455.84
2022-08-03T09:04:19.931Z,101459.63
2022-08-03T09:07:10.463Z,101465.28
2022-08-03T09:10:10.373Z,101459.56
2022-08-03T09:12:42.936Z,101446.06
2022-08-03T09:15:20.153Z,101443.94
2022-08-03T09:17:51.286Z,101455.22
2022-08-03T09:20:21.441Z,101445.00
2022-08-03T09:22:55.343Z,101441.13
2022-08-03T09:25:33.949Z,101441.13
2022-08-03T09:28:07.560Z,101457.63
2022-08-03T09:30:37.141Z,101445.31
2022-08-03T09:33:08.379Z,101454.91
2022-08-03T09:35:59.025Z,101440.31
2022-08-03T09:38:27.752Z,101438.03
2022-08-03T09:41:00.845Z,101440.50
2022-08-03T09:43:30.102Z,101432.75
2022-08-03T09:46:05.778Z,101436.47
2022-08-03T09:48:35.209Z,101445.31
2022-08-03T09:51:14.504Z,101439.34
2022-08-03T09:54:00.347Z,101428.94
2022-08-03T09:56:41.763Z,101423.53
2022-08-03T09:59:11.971Z,101430.44
2022-08-03T10:01:44.775Z,101423.53
2022-08-03T10:04:18.095Z,101428.53
2022-08-03T10:06:47.716Z,101424.38
2022-08-03T10:09:18.586Z,101433.13
2022-08-03T10:11:49.423Z,101412.59
2022-08-03T10:14:19.991Z,101435.41
2022-08-03T10:16:49.881Z,101421.56
2022-08-03T10:19:19.484Z,101421.78
2022-08-03T10:21:56.415Z,101422.03
2022-08-03T10:24:31.047Z,101429.16
2022-08-03T10:27:04.496Z,101421.22
2022-08-03T10:29:40.291Z,101425.63
2022-08-03T10:32:28.729Z,101416.00
2022-08-03T10:35:19.913Z,101407.31
2022-08-03T10:37:58.799Z,101410.53
2022-08-03T10:43:23.012Z,101411.63
2022-08-03T10:45:52.369Z,101412.19
2022-08-03T10:48:21.855Z,101411.19
2022-08-03T10:50:52.800Z,101409.09
2022-08-03T10:53:36.786Z,101403.56
2022-08-03T10:56:35.653Z,101399.03
2022-08-03T10:59:27.484Z,101406.94
2022-08-03T11:02:01.030Z,101394.63
2022-08-03T11:04:31.006Z,101395.94
2022-08-03T11:07:21.990Z,101391.56
2022-08-03T11:09:51.999Z,101394.66
2022-08-03T11:12:30.017Z,101396.53
2022-08-03T11:15:06.472Z,101406.41
2022-08-03T11:17:45.918Z,101399.44
2022-08-03T11:20:45.210Z,101387.84
2022-08-03T11:23:14.524Z,101401.53
2022-08-03T11:26:15.000Z,101389.94
2022-08-03T11:28:45.344Z,101382.00
2022-08-03T11:31:56.835Z,101386.81
2022-08-03T11:34:27.098Z,101390.53
2022-08-03T11:37:29.968Z,101379.19
2022-08-03T11:40:02.770Z,101392.66
2022-08-03T11:42:44.052Z,101386.34
2022-08-03T11:45:13.208Z,101395.69
2022-08-03T11:47:50.132Z,101375.84
2022-08-03T11:50:24.509Z,101368.63
2022-08-03T11:52:53.438Z,101381.16
2022-08-03T11:55:22.890Z,101372.94
2022-08-03T11:59:17.273Z,101381.50
2022-08-03T12:00:41.350Z,101378.88
2022-08-03T12:03:11.865Z,101382.94
2022-08-03T12:05:52.300Z,101388.34
2022-08-03T12:08:32.905Z,101384.06
2022-08-03T12:11:04.495Z,101393.91
2022-08-03T12:14:45.437Z,101373.31
2022-08-03T12:16:32.641Z,101373.91
2022-08-03T12:19:02.882Z,101376.66
2022-08-03T12:21:33.701Z,101387.00
2022-08-03T12:24:05.601Z,101363.31
2022-08-03T12:26:45.225Z,101369.59
2022-08-03T12:29:28.654Z,101373.56
2022-08-03T12:31:57.808Z,101368.31
2022-08-03T12:34:47.433Z,101369.44
2022-08-03T12:37:22.607Z,101373.91
2022-08-03T12:40:02.939Z,101363.50
2022-08-03T12:42:37.153Z,101373.56
2022-08-03T12:45:23.188Z,101363.53
2022-08-03T12:47:53.865Z,101373.66
2022-08-03T12:50:26.867Z,101363.38
2022-08-03T12:52:57.612Z,101359.38
2022-08-03T12:55:40.138Z,101351.16
2022-08-03T12:58:36.717Z,101357.28
2022-08-03T13:01:10.061Z,101350.47
2022-08-03T13:03:49.502Z,101350.06
2022-08-03T13:06:21.338Z,101353.84
2022-08-03T13:09:02.462Z,101353.69
2022-08-03T13:11:58.200Z,101355.97
2022-08-03T13:14:20.648Z,101346.50
2022-08-03T13:16:49.725Z,101355.69
2022-08-03T13:19:18.424Z,101352.16
2022-08-03T13:21:53.675Z,101354.59
2022-08-03T13:24:34.827Z,101347.75
2022-08-03T13:27:58.911Z,101342.63
2022-08-03T13:29:54.137Z,101351.69
2022-08-03T13:32:25.295Z,101345.47
2022-08-03T13:34:54.002Z,101345.59
2022-08-03T13:37:23.507Z,101341.78
2022-08-03T13:39:58.727Z,101340.84
2022-08-03T13:42:33.628Z,101340.06
2022-08-03T13:45:03.051Z,101341.63
2022-08-03T13:47:32.152Z,101328.22
2022-08-03T13:50:03.086Z,101338.16
2022-08-03T13:52:33.716Z,101340.84
2022-08-03T13:55:05.417Z,101329.28
2022-08-03T13:58:05.234Z,101329.38
2022-08-03T14:00:29.306Z,101329.06
2022-08-03T14:03:13.693Z,101330.44
2022-08-03T14:05:43.957Z,101320.16
2022-08-03T14:08:13.675Z,101331.34
2022-08-03T14:10:45.754Z,101320.53
2022-08-03T14:13:17.712Z,101323.34
2022-08-03T14:15:50.340Z,101316.06
2022-08-03T14:18:27.593Z,101317.22
2022-08-03T14:21:03.488Z,101325.31
2022-08-03T14:23:37.582Z,101324.97
2022-08-03T14:26:09.336Z,101326.53
2022-08-03T14:28:38.259Z,101309.63
2022-08-03T14:31:08.369Z,101308.34
2022-08-03T14:33:55.783Z,101306.34
2022-08-03T14:36:25.439Z,101316.75
2022-08-03T14:38:57.105Z,101321.25
2022-08-03T14:41:30.775Z,101324.59
2022-08-03T14:44:01.977Z,101309.59
2022-08-03T14:46:32.189Z,101316.06
2022-08-03T14:50:24.524Z,101310.00
2022-08-03T14:51:51.443Z,101311.66
2022-08-03T14:54:23.028Z,101308.16
2022-08-03T14:56:53.556Z,101308.25
2022-08-03T14:59:22.341Z,101303.63
2022-08-03T15:02:02.948Z,101294.94
2022-08-03T15:04:35.144Z,101295.13
2022-08-03T15:07:04.012Z,101288.13
2022-08-03T15:09:33.494Z,101290.44
2022-08-03T15:12:03.790Z,101300.88
2022-08-03T15:14:33.416Z,101293.91
2022-08-03T15:17:04.105Z,101301.09
2022-08-03T15:20:02.842Z,101298.06
2022-08-03T15:22:25.134Z,101290.22
2022-08-03T15:24:56.134Z,101294.38
2022-08-03T15:27:26.259Z,101298.94
2022-08-03T15:30:05.129Z,101286.94
2022-08-03T15:32:38.468Z,101285.00
2022-08-03T15:35:07.639Z,101289.88
2022-08-03T15:37:36.584Z,101281.47
2022-08-03T15:40:06.488Z,101289.97
2022-08-03T15:42:36.823Z,101275.75
2022-08-03T15:45:06.327Z,101289.63
2022-08-03T15:47:35.233Z,101280.19
2022-08-03T15:50:09.192Z,101286.69
2022-08-03T15:52:38.478Z,101293.88
2022-08-03T15:55:08.088Z,101291.59
2022-08-03T15:59:09.863Z,101289.91
2022-08-03T16:00:33.733Z,101288.25
2022-08-03T16:03:03.078Z,101287.94
2022-08-03T16:05:31.882Z,101282.81
2022-08-03T16:08:03.932Z,101273.28
2022-08-03T16:10:34.016Z,101276.78
2022-08-03T16:13:04.032Z,101281.75
2022-08-03T16:15:32.866Z,101279.56
2022-08-03T16:18:07.737Z,101278.72
2022-08-03T16:20:36.371Z,101274.00
2022-08-03T16:23:11.498Z,101284.78
2022-08-03T16:25:41.843Z,101270.28
2022-08-03T16:28:14.386Z,101270.41
2022-08-03T16:30:45.155Z,101262.16
2022-08-03T16:33:16.968Z,101269.53
2022-08-03T16:35:46.841Z,101270.22
2022-08-03T16:38:19.060Z,101271.16
2022-08-03T16:40:52.153Z,101273.44
2022-08-03T16:43:24.614Z,101267.66
2022-08-03T16:45:53.812Z,101267.81
2022-08-03T16:48:22.520Z,101269.03
2022-08-03T16:50:51.269Z,101264.00
2022-08-03T16:53:51.541Z,101262.19
2022-08-03T16:56:10.670Z,101262.28
2022-08-03T16:58:42.854Z,101268.00
2022-08-03T17:01:21.829Z,101269.16
2022-08-03T17:03:57.260Z,101262.66
2022-08-03T17:06:35.601Z,101266.81
2022-08-03T17:09:08.823Z,101259.56
2022-08-03T17:11:46.602Z,101269.34
2022-08-03T17:14:22.543Z,101270.53
2022-08-03T17:16:54.705Z,101269.06
2022-08-03T17:19:25.359Z,101268.22
2022-08-03T17:22:01.374Z,101255.44
2022-08-03T17:24:33.583Z,101266.75
2022-08-03T17:27:08.707Z,101262.56
2022-08-03T17:29:45.178Z,101270.94
2022-08-03T17:32:21.202Z,101276.13
2022-08-03T17:34:50.680Z,101274.78
2022-08-03T17:37:50.731Z,101275.91
2022-08-03T17:40:17.384Z,101270.41
2022-08-03T17:45:52.434Z,101277.88
2022-08-03T17:48:24.900Z,101268.34
2022-08-03T17:51:00.590Z,101268.16
2022-08-03T17:53:33.115Z,101269.09
2022-08-03T17:59:08.479Z,101278.97
2022-08-03T18:02:12.233Z,101291.53
2022-08-03T18:04:57.387Z,101294.81
2022-08-03T18:07:41.162Z,101292.72
2022-08-03T18:10:15.074Z,101295.88
2022-08-03T18:12:51.804Z,101289.13
2022-08-03T18:15:28.607Z,101284.84
2022-08-03T18:18:10.729Z,101291.88
2022-08-03T18:20:42.676Z,101297.06
2022-08-03T18:23:24.800Z,101293.88
2022-08-03T18:25:59.109Z,101291.59
2022-08-03T18:28:28.942Z,101296.25
2022-08-03T18:30:59.574Z,101300.16
2022-08-03T18:36:30.521Z,101307.75
2022-08-03T18:39:02.393Z,101308.41
2022-08-03T18:41:35.450Z,101318.19
2022-08-03T18:44:53.010Z,101314.28
2022-08-03T18:47:16.397Z,101322.59
2022-08-03T18:49:58.928Z,101328.31
2022-08-03T18:52:32.865Z,101341.19
2022-08-03T18:55:20.208Z,101340.50
2022-08-03T18:57:53.657Z,101348.38
2022-08-03T19:00:42.598Z,101361.50
2022-08-03T19:03:20.678Z,101366.94
2022-08-03T19:06:03.094Z,101374.84
2022-08-03T19:08:49.301Z,101386.84
2022-08-03T19:11:28.305Z,101399.78
2022-08-03T19:14:00.417Z,101400.09
2022-08-03T19:16:36.056Z,101405.69
2022-08-03T19:19:14.383Z,101414.31
2022-08-03T19:21:46.730Z,101419.97
2022-08-03T19:24:23.377Z,101423.72
2022-08-03T19:26:56.965Z,101427.81
2022-08-03T19:29:33.333Z,101431.44
2022-08-03T19:32:16.474Z,101438.50
2022-08-03T19:34:46.838Z,101437.00
2022-08-03T19:37:17.514Z,101429.69
2022-08-03T19:39:56.760Z,101438.31
2022-08-03T19:42:32.221Z,101426.47
2022-08-03T19:45:11.021Z,101437.63
2022-08-03T19:47:47.572Z,101435.84
2022-08-03T19:50:21.096Z,101430.69
2022-08-03T19:52:52.559Z,101439.56
2022-08-03T19:55:25.942Z,101456.22
2022-08-03T19:57:59.084Z,101447.16
2022-08-03T20:00:30.690Z,101460.94
2022-08-03T20:03:22.185Z,101454.50
2022-08-03T20:05:55.065Z,101463.34
2022-08-03T20:08:27.513Z,101458.16
2022-08-03T20:10:58.085Z,101461.81
2022-08-03T20:13:39.116Z,101467.25
2022-08-03T20:16:08.669Z,101461.31
2022-08-03T20:18:40.482Z,101459.53
2022-08-03T20:21:15.222Z,101469.09
2022-08-03T20:24:02.022Z,101462.88
2022-08-03T20:26:39.149Z,101469.88
2022-08-03T20:29:12.905Z,101460.31
2022-08-03T20:31:41.801Z,101475.81
2022-08-03T20:34:10.704Z,101472.19
2022-08-03T20:36:39.799Z,101471.16
2022-08-03T20:39:10.625Z,101467.53
2022-08-03T20:41:39.755Z,101477.13
2022-08-03T20:44:08.993Z,101478.41
2022-08-03T20:46:53.113Z,101478.41
2022-08-03T20:49:29.337Z,101478.41
2022-08-03T20:52:18.741Z,101477.63
2022-08-03T20:54:51.472Z,101479.94
2022-08-03T20:57:21.184Z,101477.34
2022-08-03T20:59:51.766Z,101483.03
2022-08-03T21:05:10.829Z,101481.44
2022-08-03T21:08:04.096Z,101485.56
2022-08-03T21:10:42.122Z,101483.56
2022-08-03T21:13:05.062Z,101306.31
2022-08-03T21:13:05.311Z,101262.94
2022-08-03T21:13:05.680Z,101277.50
2022-08-03T21:13:19.029Z,101484.25
2022-08-03T21:16:12.835Z,101488.38
2022-08-03T21:18:45.815Z,101483.47
2022-08-03T21:21:18.621Z,101485.53
2022-08-03T21:23:51.689Z,101486.00
2022-08-03T21:26:25.443Z,101492.47
2022-08-03T21:28:56.193Z,101493.47
2022-08-03T21:31:26.811Z,101480.31
2022-08-03T21:33:57.597Z,101483.72
2022-08-03T21:36:28.706Z,101486.00
2022-08-03T21:38:58.155Z,101489.88
2022-08-03T21:41:30.403Z,101492.97
2022-08-03T21:43:59.173Z,101491.63
2022-08-03T21:46:30.714Z,101492.63
2022-08-03T21:50:02.676Z,101494.47
2022-08-03T21:51:54.680Z,101498.78
2022-08-03T21:54:25.649Z,101497.72
2022-08-03T21:56:57.956Z,101496.94
2022-08-03T21:59:27.110Z,101499.53
2022-08-03T22:01:58.569Z,101495.66
2022-08-03T22:04:50.445Z,101499.53
2022-08-03T22:07:18.427Z,101496.41
2022-08-03T22:09:51.277Z,101498.75
2022-08-03T22:12:25.014Z,101494.09
2022-08-03T22:15:01.118Z,101490.66
2022-08-03T22:17:55.959Z,101492.16
2022-08-03T22:20:22.812Z,101489.84
2022-08-03T22:22:56.655Z,101499.41
2022-08-03T22:25:30.096Z,101497.84
2022-08-03T22:28:02.448Z,101504.06
2022-08-03T22:30:31.691Z,101503.75
2022-08-03T22:33:01.120Z,101501.97
2022-08-03T22:35:32.293Z,101501.91
2022-08-03T22:38:13.768Z,101502.69
2022-08-03T22:40:42.873Z,101505.97
2022-08-03T22:43:13.257Z,101507.81
2022-08-03T22:46:07.243Z,101501.84
2022-08-03T22:48:40.994Z,101506.94
2022-08-03T22:51:11.342Z,101514.94
2022-08-03T22:53:41.338Z,101505.41
2022-08-03T22:56:09.984Z,101515.19
2022-08-03T22:58:40.069Z,101512.09
2022-08-03T23:01:12.890Z,101513.34
2022-08-03T23:03:58.673Z,101520.22
2022-08-03T23:06:35.831Z,101515.13
2022-08-03T23:09:09.188Z,101513.78
2022-08-03T23:11:42.871Z,101516.66
2022-08-03T23:14:19.614Z,101514.09
2022-08-03T23:16:48.524Z,101512.44
2022-08-03T23:19:25.133Z,101510.00
2022-08-03T23:22:02.732Z,101512.78
2022-08-03T23:24:36.865Z,101524.69
2022-08-03T23:27:06.745Z,101513.56
2022-08-03T23:29:43.522Z,101521.31
2022-08-03T23:32:14.354Z,101515.34
2022-08-03T23:35:01.608Z,101509.34
2022-08-03T23:37:31.689Z,101512.97
2022-08-03T23:40:02.135Z,101512.50
2022-08-03T23:42:31.110Z,101506.56
2022-08-03T23:45:05.941Z,101504.00
2022-08-03T23:47:47.226Z,101503.31
2022-08-03T23:50:16.734Z,101501.09
2022-08-03T23:52:55.809Z,101513.25
2022-08-03T23:55:37.823Z,101503.88
2022-08-03T23:58:16.556Z,101504.91
